Time;durP1;ratioP1;P1;durP2;ratioP2;P2;SDS_P1;SDS_P2;PMS_P1;PMS_P2;Temp;Humidity;BMP_temperature;BMP_pressure;BME280_temperature;BME280_humidity;BME280_pressure;Samples;Min_cycle;Max_cycle;Signal;HPM_P1;HPM_P2
2024/03/02 00:00:13;;;;;;;12.35;6.95;;;;;;;4.59;100.00;96093.63;5027072;28;20284;-62
2024/03/02 00:02:46;;;;;;;12.55;7.13;;;;;;;4.60;100.00;96104.13;5023257;28;20045;-62
2024/03/02 00:05:15;;;;;;;13.07;7.60;;;;;;;4.60;100.00;96092.59;5016592;28;20041;-62
2024/03/02 00:07:42;;;;;;;12.98;6.65;;;;;;;4.64;100.00;96099.91;5032942;28;20053;-62
2024/03/02 00:10:11;;;;;;;12.95;7.00;;;;;;;4.76;100.00;96107.03;5015768;28;20091;-62
2024/03/02 00:12:39;;;;;;;12.73;7.63;;;;;;;4.76;100.00;96102.47;5020702;28;20116;-62
2024/03/02 00:15:41;;;;;;;12.15;6.50;;;;;;;4.79;100.00;96103.88;5020362;28;20037;-62
2024/03/02 00:18:11;;;;;;;11.02;7.05;;;;;;;4.73;100.00;96097.63;5030841;28;20037;-62
2024/03/02 00:20:38;;;;;;;11.65;6.57;;;;;;;4.69;100.00;96097.28;5032905;28;20069;-62
2024/03/02 00:23:07;;;;;;;13.38;7.88;;;;;;;4.66;100.00;96097.81;5021053;28;20520;-62
2024/03/02 00:25:41;;;;;;;14.80;7.88;;;;;;;4.63;100.00;96100.13;5019685;28;20040;-62
2024/03/02 00:28:18;;;;;;;12.23;7.53;;;;;;;4.62;100.00;96096.66;5022012;28;20079;-62
2024/03/02 00:30:52;;;;;;;13.80;7.50;;;;;;;4.67;100.00;96087.88;5021975;28;20053;-62
2024/03/02 00:33:20;;;;;;;13.05;7.63;;;;;;;4.64;100.00;96094.53;5022726;28;20516;-61
2024/03/02 00:35:47;;;;;;;13.35;7.78;;;;;;;4.69;100.00;96097.28;5020632;28;20065;-61
2024/03/02 00:38:15;;;;;;;14.65;7.40;;;;;;;4.68;100.00;96095.66;5017157;28;20044;-63
2024/03/02 00:40:42;;;;;;;13.63;7.75;;;;;;;4.68;100.00;96098.34;5026325;28;20041;-61
2024/03/02 00:43:43;;;;;;;11.55;6.82;;;;;;;4.81;100.00;96099.91;5018726;28;20064;-61
2024/03/02 00:46:18;;;;;;;12.45;7.57;;;;;;;4.77;100.00;96104.13;5022827;28;20056;-61
2024/03/02 00:48:51;;;;;;;15.00;7.70;;;;;;;4.74;100.00;96106.47;5019035;28;20060;-61
2024/03/02 00:51:17;;;;;;;17.67;7.32;;;;;;;4.63;100.00;96103.66;5023650;28;20546;-62
2024/03/02 00:53:44;;;;;;;12.32;6.40;;;;;;;4.71;100.00;96101.63;5029925;28;20099;-61
2024/03/02 00:56:14;;;;;;;14.52;7.63;;;;;;;4.63;100.00;96097.47;5022512;28;20038;-61
2024/03/02 00:58:40;;;;;;;12.85;7.20;;;;;;;4.53;100.00;96108.84;5020000;28;20037;-61
2024/03/02 01:01:07;;;;;;;13.60;6.90;;;;;;;4.52;100.00;96108.03;5029233;28;20050;-60
2024/03/02 01:03:34;;;;;;;13.88;7.30;;;;;;;4.50;100.00;96102.09;5030076;28;20116;-62
2024/03/02 01:06:01;;;;;;;13.30;7.43;;;;;;;4.43;100.00;96098.78;5022349;28;20045;-62
2024/03/02 01:08:27;;;;;;;12.45;7.18;;;;;;;4.38;100.00;96106.72;5029813;28;20063;-62
2024/03/02 01:10:54;;;;;;;14.05;7.82;;;;;;;4.29;100.00;96099.13;5018346;28;20048;-62
2024/03/02 01:13:23;;;;;;;13.30;8.50;;;;;;;4.24;100.00;96111.59;5031156;28;20065;-62
2024/03/02 01:15:50;;;;;;;13.02;7.68;;;;;;;4.21;100.00;96107.56;5030179;28;20088;-62
2024/03/02 01:18:16;;;;;;;14.02;7.55;;;;;;;4.18;100.00;96108.03;5028053;28;20044;-62
2024/03/02 01:20:43;;;;;;;12.65;7.65;;;;;;;4.08;100.00;96100.63;5027656;28;20045;-62
2024/03/02 01:23:10;;;;;;;13.95;8.25;;;;;;;4.00;100.00;96104.50;5017124;28;20037;-62
2024/03/02 01:25:36;;;;;;;17.90;8.60;;;;;;;4.00;100.00;96104.50;5027106;28;20138;-62
2024/03/02 01:28:04;;;;;;;14.25;8.05;;;;;;;3.96;100.00;96097.19;5026542;28;20048;-60
2024/03/02 01:30:30;;;;;;;14.82;8.05;;;;;;;3.88;100.00;96096.53;5027603;28;20100;-61
2024/03/02 01:32:58;;;;;;;15.75;8.27;;;;;;;3.89;100.00;96090.13;5024097;28;20048;-60
2024/03/02 01:35:27;;;;;;;14.82;8.50;;;;;;;3.92;100.00;96088.00;5022646;28;20045;-61
2024/03/02 01:37:54;;;;;;;14.35;8.35;;;;;;;3.89;100.00;96084.78;5022639;28;20786;-62
2024/03/02 01:40:20;;;;;;;13.93;7.93;;;;;;;3.89;100.00;96089.31;5021766;28;20060;-61
2024/03/02 01:42:47;;;;;;;15.07;8.25;;;;;;;3.89;100.00;96083.94;5026004;28;20060;-62
2024/03/02 01:45:13;;;;;;;14.43;8.50;;;;;;;3.94;100.00;96086.72;5013581;28;20101;-61
2024/03/02 01:47:40;;;;;;;15.15;8.32;;;;;;;3.85;100.00;96083.63;5018204;28;20049;-61
2024/03/02 01:50:08;;;;;;;14.57;8.68;;;;;;;3.81;100.00;96084.34;5025536;28;20046;-62
2024/03/02 01:52:34;;;;;;;12.18;7.82;;;;;;;3.70;100.00;96086.03;5014904;28;20037;-61
2024/03/02 01:55:01;;;;;;;15.95;7.63;;;;;;;3.61;100.00;96090.97;5020540;28;20096;-61
2024/03/02 01:57:27;;;;;;;14.73;8.45;;;;;;;3.57;100.00;96087.13;5024615;28;20119;-61
2024/03/02 01:59:54;;;;;;;15.80;9.55;;;;;;;3.50;100.00;96087.25;5021703;28;20048;-60
2024/03/02 02:02:21;;;;;;;16.38;9.13;;;;;;;3.51;100.00;96081.66;5028900;28;20057;-62
2024/03/02 02:04:47;;;;;;;14.50;7.93;;;;;;;3.58;100.00;96089.56;5025212;28;20052;-61
2024/03/02 02:07:14;;;;;;;14.18;7.65;;;;;;;3.73;100.00;96089.03;5019531;28;20048;-61
2024/03/02 02:09:41;;;;;;;14.77;8.10;;;;;;;3.81;100.00;96081.66;5023366;28;20452;-61
2024/03/02 02:12:09;;;;;;;15.77;8.88;;;;;;;3.83;100.00;96077.69;5028158;28;20657;-61
2024/03/02 02:14:37;;;;;;;15.82;9.57;;;;;;;3.69;100.00;96079.84;5023945;28;20072;-61
2024/03/02 02:17:03;;;;;;;15.30;8.32;;;;;;;3.62;100.00;96066.59;5012547;28;20053;-62
2024/03/02 02:19:30;;;;;;;16.20;9.43;;;;;;;3.48;100.00;96073.31;5022160;28;20064;-62
2024/03/02 02:21:56;;;;;;;15.07;8.10;;;;;;;3.47;100.00;96074.38;5028876;28;20045;-59
2024/03/02 02:24:23;;;;;;;16.05;9.15;;;;;;;3.47;100.00;96077.03;5021450;28;20064;-61
2024/03/02 02:26:49;;;;;;;19.02;9.02;;;;;;;3.45;100.00;96074.59;5023250;28;20053;-61
2024/03/02 02:29:16;;;;;;;18.35;9.13;;;;;;;3.44;100.00;96072.97;5028110;28;20045;-61
2024/03/02 02:31:42;;;;;;;18.45;8.90;;;;;;;3.46;100.00;96073.53;5025102;28;20037;-60
2024/03/02 02:34:09;;;;;;;18.70;9.93;;;;;;;3.37;100.00;96073.13;5021610;28;20042;-61
2024/03/02 02:36:39;;;;;;;16.38;8.85;;;;;;;3.32;100.00;96069.53;5021913;28;20045;-62
2024/03/02 02:39:08;;;;;;;18.10;8.90;;;;;;;3.28;100.00;96068.38;5003723;28;20045;-60
2024/03/02 02:41:35;;;;;;;19.17;10.38;;;;;;;3.20;100.00;96066.88;5017934;28;20580;-62
2024/03/02 02:44:01;;;;;;;17.27;9.73;;;;;;;3.15;100.00;96064.91;5016974;28;20068;-61
2024/03/02 02:46:28;;;;;;;19.20;9.40;;;;;;;3.04;100.00;96060.41;5015435;28;20112;-62
2024/03/02 02:48:54;;;;;;;18.55;9.73;;;;;;;2.98;100.00;96048.78;5017307;28;20041;-62
2024/03/02 02:51:21;;;;;;;18.65;10.38;;;;;;;2.95;100.00;96054.63;5019019;28;20104;-62
2024/03/02 02:53:47;;;;;;;17.98;10.48;;;;;;;2.98;100.00;96062.97;5023993;28;20141;-62
2024/03/02 02:56:14;;;;;;;18.45;9.88;;;;;;;3.03;100.00;96067.63;5029257;28;20041;-62
2024/03/02 02:58:41;;;;;;;19.90;11.30;;;;;;;3.06;100.00;96059.13;5020217;28;20053;-61
2024/03/02 03:01:08;;;;;;;18.63;10.23;;;;;;;3.12;100.00;96062.72;5021371;28;20459;-60
2024/03/02 03:03:35;;;;;;;17.20;9.27;;;;;;;3.21;100.00;96063.97;5027400;28;20704;-61
2024/03/02 03:06:02;;;;;;;17.23;10.00;;;;;;;3.27;100.00;96061.41;5016549;28;20042;-61
2024/03/02 03:08:28;;;;;;;18.67;9.77;;;;;;;3.24;100.00;96065.34;5024252;28;20048;-59
2024/03/02 03:10:55;;;;;;;18.83;9.45;;;;;;;3.24;100.00;96066.16;5024311;28;20042;-61
2024/03/02 03:13:22;;;;;;;16.63;9.60;;;;;;;3.18;100.00;96066.31;5020909;28;20037;-60
2024/03/02 03:15:49;;;;;;;18.25;9.50;;;;;;;3.17;100.00;96062.81;5022781;28;20108;-61
2024/03/02 03:18:15;;;;;;;18.15;10.05;;;;;;;3.12;100.00;96062.72;5023097;28;20052;-60
2024/03/02 03:20:42;;;;;;;21.60;10.90;;;;;;;3.09;100.00;96066.69;5020893;28;20120;-61
2024/03/02 03:23:09;;;;;;;20.65;10.40;;;;;;;3.13;100.00;96064.34;5023853;28;20127;-60
2024/03/02 03:25:35;;;;;;;23.00;11.50;;;;;;;3.05;100.00;96065.53;5020671;28;20122;-61
2024/03/02 03:28:02;;;;;;;21.17;11.07;;;;;;;2.94;100.00;96063.66;5032372;28;20046;-61
2024/03/02 03:30:29;;;;;;;20.48;11.75;;;;;;;2.86;100.00;96063.00;5032561;28;20048;-62
2024/03/02 03:32:55;;;;;;;21.60;11.65;;;;;;;2.85;100.00;96063.25;5027828;28;20117;-61
2024/03/02 03:35:22;;;;;;;19.30;11.00;;;;;;;2.86;100.00;96062.19;5016729;28;20644;-62
2024/03/02 03:37:49;;;;;;;19.65;11.23;;;;;;;2.80;100.00;96073.81;5020488;28;20120;-61
2024/03/02 03:40:15;;;;;;;22.85;12.63;;;;;;;2.78;100.00;96063.38;5025087;28;20037;-61
2024/03/02 03:42:42;;;;;;;22.05;12.07;;;;;;;2.79;100.00;96073.00;5027571;28;20037;-60
2024/03/02 03:45:09;;;;;;;24.77;12.02;;;;;;;2.81;100.00;96062.91;5021976;28;20152;-61
2024/03/02 03:47:36;;;;;;;20.83;12.18;;;;;;;2.81;100.00;96064.75;5020602;28;20068;-61
2024/03/02 03:50:05;;;;;;;22.27;12.32;;;;;;;2.78;100.00;96062.53;5018376;28;20073;-61
2024/03/02 03:52:32;;;;;;;25.20;11.95;;;;;;;2.73;100.00;96065.94;5026546;28;20074;-61
2024/03/02 03:55:00;;;;;;;24.40;11.35;;;;;;;2.75;100.00;96057.66;5019660;28;20048;-62
2024/03/02 03:57:27;;;;;;;21.25;11.27;;;;;;;2.62;100.00;96066.75;5025590;28;20045;-62
2024/03/02 03:59:53;;;;;;;22.15;10.90;;;;;;;2.61;100.00;96060.56;5025781;28;20052;-61
2024/03/02 04:02:20;;;;;;;21.88;11.27;;;;;;;2.60;100.00;96054.44;5018430;28;20676;-62
2024/03/02 04:04:46;;;;;;;21.70;11.45;;;;;;;2.57;100.00;96060.25;5012039;28;20049;-61
2024/03/02 04:07:13;;;;;;;19.75;10.48;;;;;;;2.50;100.00;96066.75;5022482;28;20037;-62
2024/03/02 04:09:39;;;;;;;19.80;10.45;;;;;;;2.34;100.00;96063.72;5031623;28;20059;-62
2024/03/02 04:12:06;;;;;;;22.13;12.13;;;;;;;2.39;100.00;96068.38;5022490;28;20041;-61
2024/03/02 04:14:32;;;;;;;24.13;11.73;;;;;;;2.30;100.00;96065.22;5026868;28;20462;-62
2024/03/02 04:16:59;;;;;;;22.27;11.43;;;;;;;2.42;100.00;96071.38;5017128;28;20046;-63
2024/03/02 04:19:26;;;;;;;24.17;12.18;;;;;;;2.51;100.00;96076.38;5024904;28;20037;-63
2024/03/02 04:21:53;;;;;;;22.60;12.20;;;;;;;2.61;100.00;96073.94;5026029;28;20053;-62
2024/03/02 04:24:19;;;;;;;26.92;13.50;;;;;;;2.62;100.00;96077.44;5027554;28;20126;-61
2024/03/02 04:26:46;;;;;;;25.00;13.65;;;;;;;2.65;100.00;96074.31;5018457;28;20046;-62
2024/03/02 04:29:12;;;;;;;24.63;12.52;;;;;;;2.64;100.00;96073.47;5030902;28;20127;-62
2024/03/02 04:31:39;;;;;;;27.00;12.38;;;;;;;2.65;100.00;96068.97;5028618;28;22008;-62
2024/03/02 04:34:05;;;;;;;23.67;13.10;;;;;;;2.64;100.00;96072.66;5019571;28;20565;-61
2024/03/02 04:36:33;;;;;;;24.40;12.93;;;;;;;2.58;100.00;96069.09;5022971;28;20061;-62
2024/03/02 04:38:59;;;;;;;26.13;12.65;;;;;;;2.47;100.00;96065.38;5014617;28;20045;-60
2024/03/02 04:41:26;;;;;;;27.13;12.73;;;;;;;2.46;100.00;96064.53;5025724;28;20049;-63
2024/03/02 04:43:52;;;;;;;22.95;11.52;;;;;;;2.44;100.00;96063.94;5026511;28;20102;-60
2024/03/02 04:46:19;;;;;;;28.50;14.43;;;;;;;2.36;100.00;96058.94;5027022;28;20052;-61
2024/03/02 04:48:45;;;;;;;25.08;12.88;;;;;;;2.47;100.00;96076.84;5019652;28;20046;-63
2024/03/02 04:51:13;;;;;;;26.38;12.27;;;;;;;2.64;100.00;96070.81;5017611;28;20046;-62
2024/03/02 04:53:39;;;;;;;25.88;11.48;;;;;;;2.94;100.00;96064.50;5026250;28;20526;-62
2024/03/02 04:58:51;;;;;;;24.85;11.90;;;;;;;3.28;100.00;96066.50;5020512;28;20045;-62
2024/03/02 05:01:18;;;;;;;21.55;11.00;;;;;;;3.31;100.00;96071.38;5025931;28;20045;-63
2024/03/02 05:03:45;;;;;;;19.17;10.95;;;;;;;3.25;100.00;96070.47;5020831;28;20045;-63
2024/03/02 05:06:11;;;;;;;21.70;11.07;;;;;;;3.20;100.00;96067.69;5025766;28;20037;-62
2024/03/02 05:08:38;;;;;;;22.40;11.40;;;;;;;3.17;100.00;96065.47;5023186;28;20049;-63
2024/03/02 05:13:49;;;;;;;20.80;10.95;;;;;;;3.10;100.00;96070.19;5020957;28;20041;-63
2024/03/02 05:16:16;;;;;;;21.75;12.18;;;;;;;3.11;100.00;96069.13;5017345;28;20120;-63
2024/03/02 05:18:42;;;;;;;20.73;12.38;;;;;;;3.17;100.00;96068.16;5026058;28;20130;-62
2024/03/02 05:21:09;;;;;;;25.02;13.07;;;;;;;3.19;100.00;96070.59;5026385;28;20128;-62
2024/03/02 05:23:35;;;;;;;22.08;11.82;;;;;;;3.16;100.00;96077.25;5019506;28;20057;-62
2024/03/02 05:26:02;;;;;;;19.75;11.20;;;;;;;3.15;100.00;96074.78;5023575;28;20520;-62
2024/03/02 05:28:29;;;;;;;26.65;13.18;;;;;;;3.17;100.00;96076.19;5024880;28;20046;-62
2024/03/02 05:30:55;;;;;;;17.92;10.80;;;;;;;3.20;100.00;96081.06;5026429;28;20037;-62
2024/03/02 05:33:22;;;;;;;23.58;12.05;;;;;;;3.21;100.00;96084.56;5020422;28;20042;-61
2024/03/02 05:35:52;;;;;;;23.35;11.88;;;;;;;3.17;100.00;96084.22;5020672;28;20662;-62
2024/03/02 05:38:18;;;;;;;22.70;12.02;;;;;;;3.16;100.00;96085.25;5025681;28;20068;-62
2024/03/02 05:40:45;;;;;;;19.33;10.75;;;;;;;3.10;100.00;96083.53;5017684;28;20053;-62
2024/03/02 05:43:11;;;;;;;22.20;11.35;;;;;;;3.02;100.00;96078.56;5022712;28;20033;-62
2024/03/02 05:45:39;;;;;;;20.92;11.10;;;;;;;2.95;100.00;96090.19;5019037;28;20557;-62
2024/03/02 05:48:07;;;;;;;23.58;12.20;;;;;;;3.00;100.00;96081.47;5024397;28;20643;-62
2024/03/02 05:50:34;;;;;;;21.35;11.15;;;;;;;3.03;100.00;96081.00;5018019;28;20045;-62
2024/03/02 05:53:00;;;;;;;20.30;11.63;;;;;;;3.05;100.00;96091.44;5018069;28;20052;-62
2024/03/02 05:55:27;;;;;;;20.40;10.68;;;;;;;3.02;100.00;96086.59;5021307;28;20045;-63
2024/03/02 06:00:32;;;;;;;19.50;11.18;;;;;;;3.16;100.00;96079.91;5025410;28;20505;-62
2024/03/02 06:02:59;;;;;;;20.10;9.95;;;;;;;3.20;100.00;96080.25;5016541;28;20041;-62
2024/03/02 06:05:25;;;;;;;17.63;9.50;;;;;;;3.24;100.00;96078.72;5026232;28;20037;-61
2024/03/02 06:07:52;;;;;;;18.30;10.00;;;;;;;3.31;100.00;96079.41;5027417;28;20049;-62
2024/03/02 06:10:18;;;;;;;16.30;9.98;;;;;;;3.35;100.00;96085.91;5026554;28;20057;-63
2024/03/02 06:12:45;;;;;;;17.85;9.90;;;;;;;3.44;100.00;96089.03;5026088;28;20424;-63
2024/03/02 06:15:12;;;;;;;18.33;9.50;;;;;;;3.48;100.00;96090.19;5030352;28;20041;-63
2024/03/02 06:17:38;;;;;;;15.63;9.40;;;;;;;3.46;100.00;96086.13;5021067;28;20049;-62
2024/03/02 06:20:08;;;;;;;17.63;10.45;;;;;;;3.45;100.00;96090.66;5023305;28;20049;-62
2024/03/02 06:22:34;;;;;;;18.88;8.70;;;;;;;3.37;100.00;96083.00;5026430;28;20037;-62
2024/03/02 06:25:01;;;;;;;18.73;10.23;;;;;;;3.34;100.00;96086.97;5022991;28;20104;-62
2024/03/02 06:27:27;;;;;;;18.35;9.35;;;;;;;3.39;100.00;96086.25;5021949;28;20224;-64
2024/03/02 06:29:54;;;;;;;18.55;9.18;;;;;;;3.44;100.00;96097.06;5023180;28;20786;-64
2024/03/02 06:32:22;;;;;;;17.13;9.65;;;;;;;3.54;100.00;96088.41;5025913;28;20068;-63
2024/03/02 06:34:49;;;;;;;17.00;9.45;;;;;;;3.55;100.00;96098.06;5031405;28;20057;-63
2024/03/02 06:37:16;;;;;;;20.17;10.38;;;;;;;3.59;100.00;96098.41;5028199;28;20083;-64
2024/03/02 06:39:43;;;;;;;19.42;9.93;;;;;;;3.60;100.00;96097.34;5021770;28;20124;-64
2024/03/02 06:42:09;;;;;;;17.00;10.27;;;;;;;3.62;100.00;96106.75;5014813;28;20511;-63
2024/03/02 06:44:36;;;;;;;18.30;10.02;;;;;;;3.66;100.00;96098.25;5016775;28;20049;-64
2024/03/02 06:47:03;;;;;;;16.73;8.80;;;;;;;3.67;100.00;96103.38;5024013;28;20401;-65
2024/03/02 06:49:29;;;;;;;16.55;9.32;;;;;;;3.66;100.00;96100.94;5025721;28;20042;-64
2024/03/02 06:51:56;;;;;;;16.00;9.02;;;;;;;3.64;100.00;96099.31;5020468;28;20132;-64
2024/03/02 06:54:23;;;;;;;17.65;9.50;;;;;;;3.64;100.00;96096.63;5025817;28;20041;-65
2024/03/02 06:56:49;;;;;;;16.55;10.23;;;;;;;3.63;100.00;96096.88;5023145;28;20045;-64
2024/03/02 06:59:16;;;;;;;17.65;10.13;;;;;;;3.68;100.00;96099.63;5028759;28;20110;-64
2024/03/02 07:01:43;;;;;;;14.82;9.05;;;;;;;3.75;100.00;96088.78;5025763;28;20049;-64
2024/03/02 07:04:09;;;;;;;22.13;10.93;;;;;;;3.84;100.00;96099.94;5010636;28;20777;-63
2024/03/02 07:06:36;;;;;;;16.15;9.85;;;;;;;3.97;100.00;96102.31;5021203;28;20559;-64
2024/03/02 07:09:03;;;;;;;18.27;9.25;;;;;;;4.00;100.00;96107.19;5022388;28;20037;-64
2024/03/02 07:11:29;;;;;;;15.73;8.85;;;;;;;4.07;100.00;96108.91;5023084;28;20045;-63
2024/03/02 07:13:56;;;;;;;14.30;8.18;;;;;;;4.13;100.00;96110.63;5021015;28;20044;-63
2024/03/02 07:16:29;;;;;;;14.77;8.10;;;;;;;4.08;100.00;96110.50;5019539;28;20124;-63
2024/03/02 07:18:56;;;;;;;17.80;8.88;;;;;;;4.16;100.00;96115.47;5020633;28;20080;-64
2024/03/02 07:21:23;;;;;;;11.85;7.05;;;;;;;4.13;100.00;96111.41;5023155;28;20041;-64
2024/03/02 07:23:50;;;;;;;15.43;8.43;;;;;;;4.02;100.00;96110.44;5020326;28;20041;-63
2024/03/02 07:26:20;;;;;;;10.85;6.97;;;;;;;4.01;100.00;96114.16;5012196;28;20816;-64
2024/03/02 07:28:50;;;;;;;14.88;8.25;;;;;;;3.98;100.00;96106.59;5021255;28;20049;-63
2024/03/02 07:31:17;;;;;;;15.50;8.55;;;;;;;4.00;100.00;96109.03;5017976;28;20053;-62
2024/03/02 07:33:45;;;;;;;17.30;8.93;;;;;;;3.97;100.00;96109.53;5032256;28;20041;-62
2024/03/02 07:36:12;;;;;;;20.70;9.80;;;;;;;3.86;100.00;96112.03;5029977;28;20052;-63
2024/03/02 07:38:40;;;;;;;17.95;8.68;;;;;;;3.86;100.00;96108.53;5018018;28;20049;-62
2024/03/02 07:41:08;;;;;;;16.10;8.38;;;;;;;3.87;100.00;96119.00;5023185;28;20054;-62
2024/03/02 07:43:35;;;;;;;18.73;8.80;;;;;;;3.89;100.00;96114.22;5013378;28;20496;-63
2024/03/02 07:46:02;;;;;;;16.70;8.98;;;;;;;3.90;100.00;96121.22;5016948;28;20064;-62
2024/03/02 07:48:30;;;;;;;17.25;9.38;;;;;;;3.94;100.00;96113.50;5025503;28;20538;-61
2024/03/02 07:50:57;;;;;;;18.73;9.40;;;;;;;3.89;100.00;96124.13;5017458;28;20056;-63
2024/03/02 07:53:24;;;;;;;14.00;7.82;;;;;;;3.93;100.00;96122.59;5017689;28;20735;-62
2024/03/02 07:55:50;;;;;;;18.73;10.82;;;;;;;3.94;100.00;96121.53;5026913;28;20053;-61
2024/03/02 07:58:19;;;;;;;16.92;9.38;;;;;;;3.97;100.00;96123.75;5024739;28;20052;-62
2024/03/02 08:00:46;;;;;;;16.20;9.13;;;;;;;4.02;100.00;96123.03;5017810;28;20045;-62
2024/03/02 08:03:13;;;;;;;16.55;9.55;;;;;;;4.09;100.00;96121.00;5016656;28;20103;-62
2024/03/02 08:05:40;;;;;;;16.20;9.32;;;;;;;4.18;100.00;96131.31;5021976;28;20057;-63
2024/03/02 08:08:06;;;;;;;17.05;9.15;;;;;;;4.34;100.00;96124.34;5015440;28;20531;-62
2024/03/02 08:10:33;;;;;;;19.17;10.38;;;;;;;4.47;100.00;96116.00;5028141;28;20044;-62
2024/03/02 08:13:00;;;;;;;16.25;8.20;;;;;;;4.60;100.00;96120.22;5027749;28;20042;-63
2024/03/02 08:15:27;;;;;;;13.48;8.38;;;;;;;4.63;100.00;96113.53;5014829;28;20049;-63
2024/03/02 08:17:53;;;;;;;16.60;9.30;;;;;;;4.74;100.00;96120.69;5030975;28;20048;-62
2024/03/02 08:20:20;;;;;;;14.40;8.38;;;;;;;4.84;100.00;96120.03;5026373;28;20059;-63
2024/03/02 08:22:47;;;;;;;17.50;9.50;;;;;;;5.02;100.00;96116.25;5030587;28;20048;-62
2024/03/02 08:25:13;;;;;;;18.23;9.65;;;;;;;5.15;100.00;96112.41;5022624;28;20781;-62
2024/03/02 08:27:40;;;;;;;17.63;9.10;;;;;;;5.22;100.00;96112.22;5017876;28;20124;-63
2024/03/02 08:30:08;;;;;;;19.52;9.98;;;;;;;5.35;100.00;96113.75;5023879;28;20504;-62
2024/03/02 08:32:34;;;;;;;14.52;8.55;;;;;;;5.44;100.00;96101.50;5027027;28;20041;-63
2024/03/02 08:35:01;;;;;;;17.05;9.27;;;;;;;5.53;100.00;96104.53;5028126;28;20658;-62
2024/03/02 08:37:28;;;;;;;16.05;8.50;;;;;;;5.66;100.00;96103.38;5022409;28;20147;-68
2024/03/02 08:39:54;;;;;;;17.15;8.20;;;;;;;5.78;100.00;96116.66;5014629;28;20057;-66
2024/03/02 08:42:22;;;;;;;17.30;9.02;;;;;;;5.91;100.00;96115.44;5019674;28;20393;-66
2024/03/02 08:44:49;;;;;;;13.90;8.18;;;;;;;6.02;100.00;96099.41;5021577;28;20049;-67
2024/03/02 08:47:16;;;;;;;14.18;7.75;;;;;;;6.13;100.00;96116.47;5015782;28;20096;-65
2024/03/02 08:49:42;;;;;;;13.77;8.13;;;;;;;6.25;100.00;96114.44;5017862;28;20757;-62
2024/03/02 08:52:09;;;;;;;12.35;7.35;;;;;;;6.36;100.00;96110.78;5018723;28;20559;-64
2024/03/02 08:54:36;;;;;;;12.57;7.57;;;;;;;6.31;100.00;96110.75;5018219;28;20124;-63
2024/03/02 08:57:03;;;;;;;13.35;9.07;;;;;;;6.39;100.00;96109.47;5016744;28;20500;-65
2024/03/02 08:59:29;;;;;;;14.32;7.90;;;;;;;6.47;100.00;96110.88;5017703;28;20098;-61
2024/03/02 09:01:56;;;;;;;13.85;8.02;;;;;;;6.59;100.00;96113.38;5018293;28;20120;-62
2024/03/02 09:04:23;;;;;;;12.85;7.63;;;;;;;6.66;100.00;96115.88;5025386;28;20034;-63
2024/03/02 09:06:53;;;;;;;13.73;7.68;;;;;;;6.79;100.00;96112.72;5023757;28;20467;-63
2024/03/02 09:09:20;;;;;;;14.88;8.70;;;;;;;6.85;100.00;96114.38;5002087;28;20053;-62
2024/03/02 09:11:47;;;;;;;12.93;7.57;;;;;;;6.98;100.00;96115.00;5011892;28;20549;-63
2024/03/02 09:14:17;;;;;;;11.02;7.03;;;;;;;7.02;100.00;96111.53;5024777;28;20120;-64
2024/03/02 09:16:44;;;;;;;11.98;6.82;;;;;;;7.14;100.00;96110.50;5023229;28;20045;-63
2024/03/02 09:19:10;;;;;;;11.90;7.28;;;;;;;7.25;100.00;96105.97;5029439;28;20125;-63
2024/03/02 09:21:37;;;;;;;12.77;7.85;;;;;;;7.49;100.00;96110.94;5020222;28;20053;-63
2024/03/02 09:24:06;;;;;;;11.77;6.82;;;;;;;7.59;100.00;96102.09;5021831;28;20045;-62
2024/03/02 09:26:33;;;;;;;11.57;6.68;;;;;;;7.69;100.00;96099.41;5023733;28;20567;-62
2024/03/02 09:28:59;;;;;;;10.88;6.45;;;;;;;7.83;100.00;96088.13;5026495;28;20064;-63
2024/03/02 09:31:26;;;;;;;12.63;6.40;;;;;;;7.92;100.00;96090.06;5021183;28;20117;-63
2024/03/02 09:33:52;;;;;;;10.07;5.38;;;;;;;8.03;100.00;96085.50;5025626;28;20041;-63
2024/03/02 09:36:21;;;;;;;8.93;5.28;;;;;;;8.22;100.00;96084.97;5030049;28;20045;-63
2024/03/02 09:38:48;;;;;;;8.70;5.45;;;;;;;8.36;100.00;96087.16;5021364;28;20057;-63
2024/03/02 09:41:15;;;;;;;14.25;6.60;;;;;;;8.53;100.00;96084.19;5027126;28;20120;-62
2024/03/02 09:43:42;;;;;;;9.18;5.82;;;;;;;8.61;100.00;96080.97;5025885;28;20049;-63
2024/03/02 09:46:11;;;;;;;9.10;5.63;;;;;;;8.76;100.00;96082.84;5031098;28;20045;-63
2024/03/02 09:48:38;;;;;;;9.00;3.90;;;;;;;8.85;100.00;96078.50;5020024;28;20585;-63
2024/03/02 09:51:05;;;;;;;8.48;5.38;;;;;;;8.95;100.00;96080.38;5024118;28;20524;-63
2024/03/02 09:53:33;;;;;;;8.15;4.65;;;;;;;9.05;100.00;96071.44;5014169;28;20412;-63
2024/03/02 09:56:01;;;;;;;7.50;4.18;;;;;;;9.11;100.00;96078.44;5024684;28;20104;-63
2024/03/02 09:58:28;;;;;;;8.77;4.40;;;;;;;9.23;100.00;96071.94;5018713;28;20048;-63
2024/03/02 10:00:55;;;;;;;5.97;3.55;;;;;;;9.38;100.00;96079.16;5016207;28;20053;-63
2024/03/02 10:03:26;;;;;;;7.00;3.60;;;;;;;9.45;100.00;96081.56;5028252;28;20124;-63
2024/03/02 10:05:53;;;;;;;;;;;;;;;9.54;100.00;96079.91;5018679;28;20045;-62
2024/03/02 10:08:19;;;;;;;6.80;3.20;;;;;;;9.54;100.00;96082.59;5026065;28;20419;-63
2024/03/02 10:10:46;;;;;;;6.40;3.47;;;;;;;9.56;100.00;96080.44;5019066;28;20172;-63
2024/03/02 10:13:13;;;;;;;6.50;3.67;;;;;;;9.64;100.00;96084.47;5020581;28;20675;-63
2024/03/02 10:15:41;;;;;;;7.82;3.33;;;;;;;9.68;100.00;96077.41;5022852;28;20061;-63
2024/03/02 10:18:11;;;;;;;6.85;3.92;;;;;;;9.73;100.00;96080.09;5019546;28;20501;-63
2024/03/02 10:20:39;;;;;;;7.97;3.72;;;;;;;9.73;100.00;96079.28;5022453;28;20831;-63
2024/03/02 10:23:13;;;;;;;8.27;3.22;;;;;;;9.85;100.00;96071.63;5021131;28;20060;-62
2024/03/02 10:25:40;;;;;;;7.40;3.75;;;;;;;9.97;100.00;96070.50;5015351;28;20046;-63
2024/03/02 10:28:20;;;;;;;5.88;2.88;;;;;;;10.13;100.00;96076.59;5019522;28;20041;-63
2024/03/02 10:30:48;;;;;;;5.95;3.53;;;;;;;10.19;100.00;96075.50;5018606;28;20037;-63
2024/03/02 10:33:17;;;;;;;6.50;3.50;;;;;;;10.13;100.00;96073.91;5016634;28;20071;-64
2024/03/02 10:35:44;;;;;;;7.45;4.15;;;;;;;10.23;100.00;96075.72;5017351;28;20049;-63
2024/03/02 10:38:11;;;;;;;5.50;3.15;;;;;;;10.28;100.00;96070.28;5014786;28;20096;-64
2024/03/02 10:40:37;;;;;;;8.18;3.00;;;;;;;10.28;100.00;96065.69;5016927;28;20056;-63
2024/03/02 10:43:05;;;;;;;5.72;3.13;;;;;;;10.35;100.00;96067.25;5020848;28;20100;-63
2024/03/02 10:45:33;;;;;;;5.90;2.92;;;;;;;10.44;100.00;96068.31;5022452;28;20045;-63
2024/03/02 10:48:02;;;;;;;5.15;2.33;;;;;;;10.54;98.94;96057.38;5024356;28;20075;-64
2024/03/02 10:50:28;;;;;;;5.43;2.60;;;;;;;10.59;96.88;96063.84;5019691;28;20042;-64
2024/03/02 10:52:55;;;;;;;6.03;2.65;;;;;;;10.60;95.20;96058.16;5022935;28;20120;-63
2024/03/02 10:55:21;;;;;;;5.50;2.40;;;;;;;10.60;94.94;96052.75;5026188;28;20046;-65
2024/03/02 10:57:53;;;;;;;5.13;2.25;;;;;;;10.69;96.25;96049.41;5026074;28;20107;-64
2024/03/02 11:00:24;;;;;;;;;;;;;;;10.67;91.67;96047.00;5010320;28;20121;-65
2024/03/02 11:02:56;;;;;;;3.87;1.90;;;;;;;10.82;94.03;96039.78;5021696;28;19935;-62
2024/03/02 11:05:28;;;;;;;3.80;1.63;;;;;;;10.89;91.33;96040.28;5015995;28;20286;-63
2024/03/02 11:08:01;;;;;;;2.97;1.40;;;;;;;11.00;92.36;96041.78;5020460;28;20048;-65
2024/03/02 11:11:03;;;;;;;3.35;1.73;;;;;;;11.08;89.14;96043.06;5001032;28;20048;-68
2024/03/02 11:13:34;;;;;;;2.35;1.20;;;;;;;11.19;87.24;96033.72;5016900;28;20037;-63
2024/03/02 11:16:32;;;;;;;2.38;1.25;;;;;;;11.31;88.32;96029.78;5021938;28;20678;-64
2024/03/02 11:19:00;;;;;;;2.83;1.20;;;;;;;11.41;88.66;96037.78;5017037;28;20743;-64
2024/03/02 11:21:27;;;;;;;2.33;0.95;;;;;;;11.35;82.55;96022.69;5027310;28;20035;-66
2024/03/02 11:23:53;;;;;;;2.22;1.08;;;;;;;11.44;85.41;96023.66;5026401;28;20047;-67
2024/03/02 11:26:22;;;;;;;1.25;0.50;;;;;;;11.52;83.60;96007.84;5023114;28;20045;-67
2024/03/02 11:28:49;;;;;;;2.17;0.60;;;;;;;11.65;82.65;96006.31;5013494;28;20054;-67
2024/03/02 11:31:15;;;;;;;2.58;1.10;;;;;;;11.71;81.26;96000.53;5021537;28;20064;-67
2024/03/02 11:33:42;;;;;;;2.42;1.13;;;;;;;11.70;80.64;96000.81;5024396;28;20496;-67